sensor_id;sensor_type;location;lat;lon;timestamp;P1;durP1;ratioP1;P2;durP2;ratioP2
64597;SDS011;51004;54.692;9.332;2023-04-24T00:01:28;11.07;;;9.60;;
64597;SDS011;51004;54.692;9.332;2023-04-24T00:03:56;11.93;;;10.32;;
64597;SDS011;51004;54.692;9.332;2023-04-24T00:06:24;10.73;;;9.63;;
64597;SDS011;51004;54.692;9.332;2023-04-24T00:08:58;12.95;;;9.65;;
64597;SDS011;51004;54.692;9.332;2023-04-24T00:11:25;10.88;;;9.63;;
64597;SDS011;51004;54.692;9.332;2023-04-24T00:13:51;10.80;;;9.68;;
64597;SDS011;51004;54.692;9.332;2023-04-24T00:16:17;10.77;;;9.43;;
64597;SDS011;51004;54.692;9.332;2023-04-24T00:18:43;10.75;;;9.00;;
64597;SDS011;51004;54.692;9.332;2023-04-24T00:21:09;11.10;;;9.93;;
64597;SDS011;51004;54.692;9.332;2023-04-24T00:23:35;11.30;;;9.55;;
64597;SDS011;51004;54.692;9.332;2023-04-24T00:26:02;10.27;;;9.27;;
64597;SDS011;51004;54.692;9.332;2023-04-24T00:28:28;11.38;;;9.48;;
64597;SDS011;51004;54.692;9.332;2023-04-24T00:30:54;10.43;;;9.38;;
64597;SDS011;51004;54.692;9.332;2023-04-24T00:33:20;10.35;;;9.30;;
64597;SDS011;51004;54.692;9.332;2023-04-24T00:35:45;10.73;;;9.63;;
64597;SDS011;51004;54.692;9.332;2023-04-24T00:38:11;11.23;;;9.73;;
64597;SDS011;51004;54.692;9.332;2023-04-24T00:40:37;12.48;;;10.40;;
64597;SDS011;51004;54.692;9.332;2023-04-24T00:43:03;11.50;;;10.10;;
64597;SDS011;51004;54.692;9.332;2023-04-24T00:45:29;10.45;;;9.45;;
64597;SDS011;51004;54.692;9.332;2023-04-24T00:47:56;10.73;;;9.13;;
64597;SDS011;51004;54.692;9.332;2023-04-24T00:50:23;9.93;;;8.93;;
64597;SDS011;51004;54.692;9.332;2023-04-24T00:52:49;12.13;;;10.00;;
64597;SDS011;51004;54.692;9.332;2023-04-24T00:55:16;12.07;;;10.43;;
64597;SDS011;51004;54.692;9.332;2023-04-24T00:57:42;11.60;;;9.40;;
64597;SDS011;51004;54.692;9.332;2023-04-24T01:00:08;11.10;;;9.98;;
64597;SDS011;51004;54.692;9.332;2023-04-24T01:02:35;11.30;;;10.13;;
64597;SDS011;51004;54.692;9.332;2023-04-24T01:05:07;11.73;;;10.48;;
64597;SDS011;51004;54.692;9.332;2023-04-24T01:07:33;16.90;;;10.70;;
64597;SDS011;51004;54.692;9.332;2023-04-24T01:10:00;11.70;;;10.38;;
64597;SDS011;51004;54.692;9.332;2023-04-24T01:12:26;15.88;;;10.73;;
64597;SDS011;51004;54.692;9.332;2023-04-24T01:14:52;14.25;;;10.88;;
64597;SDS011;51004;54.692;9.332;2023-04-24T01:17:18;12.88;;;11.57;;
64597;SDS011;51004;54.692;9.332;2023-04-24T01:19:45;12.35;;;10.98;;
64597;SDS011;51004;54.692;9.332;2023-04-24T01:22:11;12.13;;;10.45;;
64597;SDS011;51004;54.692;9.332;2023-04-24T01:24:38;12.20;;;10.30;;
64597;SDS011;51004;54.692;9.332;2023-04-24T01:27:04;11.88;;;10.68;;
64597;SDS011;51004;54.692;9.332;2023-04-24T01:29:30;13.65;;;10.88;;
64597;SDS011;51004;54.692;9.332;2023-04-24T01:31:56;12.15;;;10.95;;
64597;SDS011;51004;54.692;9.332;2023-04-24T01:34:23;11.80;;;10.60;;
64597;SDS011;51004;54.692;9.332;2023-04-24T01:36:49;12.77;;;10.88;;
64597;SDS011;51004;54.692;9.332;2023-04-24T01:39:15;12.63;;;10.65;;
64597;SDS011;51004;54.692;9.332;2023-04-24T01:41:41;12.13;;;10.45;;
64597;SDS011;51004;54.692;9.332;2023-04-24T01:44:08;13.70;;;11.40;;
64597;SDS011;51004;54.692;9.332;2023-04-24T01:46:34;12.57;;;11.27;;
64597;SDS011;51004;54.692;9.332;2023-04-24T01:49:00;13.68;;;12.30;;
64597;SDS011;51004;54.692;9.332;2023-04-24T01:51:26;13.10;;;11.68;;
64597;SDS011;51004;54.692;9.332;2023-04-24T01:53:52;13.88;;;12.43;;
64597;SDS011;51004;54.692;9.332;2023-04-24T01:56:19;14.80;;;11.93;;
64597;SDS011;51004;54.692;9.332;2023-04-24T01:58:45;13.35;;;11.93;;
64597;SDS011;51004;54.692;9.332;2023-04-24T02:01:15;16.85;;;12.05;;
64597;SDS011;51004;54.692;9.332;2023-04-24T02:03:41;14.30;;;12.32;;
64597;SDS011;51004;54.692;9.332;2023-04-24T02:06:07;14.10;;;12.63;;
64597;SDS011;51004;54.692;9.332;2023-04-24T02:08:33;13.73;;;12.30;;
64597;SDS011;51004;54.692;9.332;2023-04-24T02:10:59;13.63;;;12.18;;
64597;SDS011;51004;54.692;9.332;2023-04-24T02:13:26;21.40;;;12.38;;
64597;SDS011;51004;54.692;9.332;2023-04-24T02:15:52;13.50;;;12.02;;
64597;SDS011;51004;54.692;9.332;2023-04-24T02:18:18;13.68;;;12.27;;
64597;SDS011;51004;54.692;9.332;2023-04-24T02:20:44;13.98;;;12.43;;
64597;SDS011;51004;54.692;9.332;2023-04-24T02:23:10;14.18;;;12.50;;
64597;SDS011;51004;54.692;9.332;2023-04-24T02:25:38;13.95;;;12.57;;
64597;SDS011;51004;54.692;9.332;2023-04-24T02:28:04;12.15;;;10.85;;
64597;SDS011;51004;54.692;9.332;2023-04-24T02:30:30;13.55;;;12.10;;
64597;SDS011;51004;54.692;9.332;2023-04-24T02:32:55;13.88;;;12.48;;
64597;SDS011;51004;54.692;9.332;2023-04-24T02:35:21;13.68;;;12.07;;
64597;SDS011;51004;54.692;9.332;2023-04-24T02:37:47;13.45;;;12.05;;
64597;SDS011;51004;54.692;9.332;2023-04-24T02:40:13;15.45;;;12.80;;
64597;SDS011;51004;54.692;9.332;2023-04-24T02:42:39;14.52;;;12.88;;
64597;SDS011;51004;54.692;9.332;2023-04-24T02:45:05;15.60;;;13.63;;
64597;SDS011;51004;54.692;9.332;2023-04-24T02:47:31;13.13;;;11.82;;
64597;SDS011;51004;54.692;9.332;2023-04-24T02:49:57;14.60;;;13.05;;
64597;SDS011;51004;54.692;9.332;2023-04-24T02:52:23;14.45;;;12.95;;
64597;SDS011;51004;54.692;9.332;2023-04-24T02:54:49;15.80;;;13.35;;
64597;SDS011;51004;54.692;9.332;2023-04-24T02:57:15;14.40;;;12.30;;
64597;SDS011;51004;54.692;9.332;2023-04-24T02:59:41;14.88;;;13.27;;
64597;SDS011;51004;54.692;9.332;2023-04-24T03:02:07;14.30;;;12.52;;
64597;SDS011;51004;54.692;9.332;2023-04-24T03:04:33;13.50;;;12.02;;
64597;SDS011;51004;54.692;9.332;2023-04-24T03:06:59;14.63;;;13.23;;
64597;SDS011;51004;54.692;9.332;2023-04-24T03:09:26;15.00;;;13.50;;
64597;SDS011;51004;54.692;9.332;2023-04-24T03:11:52;15.20;;;13.38;;
64597;SDS011;51004;54.692;9.332;2023-04-24T03:14:17;13.15;;;11.82;;
64597;SDS011;51004;54.692;9.332;2023-04-24T03:16:44;17.73;;;13.05;;
64597;SDS011;51004;54.692;9.332;2023-04-24T03:19:10;13.73;;;12.20;;
64597;SDS011;51004;54.692;9.332;2023-04-24T03:21:35;13.80;;;12.15;;
64597;SDS011;51004;54.692;9.332;2023-04-24T03:24:05;13.40;;;12.00;;
64597;SDS011;51004;54.692;9.332;2023-04-24T03:26:31;13.50;;;12.15;;
64597;SDS011;51004;54.692;9.332;2023-04-24T03:28:57;13.35;;;12.05;;
64597;SDS011;51004;54.692;9.332;2023-04-24T03:31:23;12.65;;;11.32;;
64597;SDS011;51004;54.692;9.332;2023-04-24T03:33:49;13.23;;;11.93;;
64597;SDS011;51004;54.692;9.332;2023-04-24T03:36:16;12.73;;;11.25;;
64597;SDS011;51004;54.692;9.332;2023-04-24T03:38:44;13.05;;;11.10;;
64597;SDS011;51004;54.692;9.332;2023-04-24T03:41:10;13.85;;;10.95;;
64597;SDS011;51004;54.692;9.332;2023-04-24T03:43:36;11.95;;;10.63;;
64597;SDS011;51004;54.692;9.332;2023-04-24T03:46:02;12.05;;;10.23;;
64597;SDS011;51004;54.692;9.332;2023-04-24T03:48:29;11.80;;;10.45;;
64597;SDS011;51004;54.692;9.332;2023-04-24T03:50:55;11.07;;;9.70;;
64597;SDS011;51004;54.692;9.332;2023-04-24T03:53:21;10.20;;;9.18;;
64597;SDS011;51004;54.692;9.332;2023-04-24T03:55:47;9.57;;;8.63;;
64597;SDS011;51004;54.692;9.332;2023-04-24T03:58:13;9.90;;;8.88;;
64597;SDS011;51004;54.692;9.332;2023-04-24T04:00:39;9.75;;;8.68;;
64597;SDS011;51004;54.692;9.332;2023-04-24T04:03:06;9.75;;;8.77;;
64597;SDS011;51004;54.692;9.332;2023-04-24T04:05:32;10.18;;;9.20;;
64597;SDS011;51004;54.692;9.332;2023-04-24T04:07:57;9.32;;;8.50;;
64597;SDS011;51004;54.692;9.332;2023-04-24T04:12:59;10.48;;;9.30;;
64597;SDS011;51004;54.692;9.332;2023-04-24T04:15:25;10.88;;;9.77;;
64597;SDS011;51004;54.692;9.332;2023-04-24T04:20:27;10.82;;;9.15;;
64597;SDS011;51004;54.692;9.332;2023-04-24T04:22:53;11.52;;;9.70;;
64597;SDS011;51004;54.692;9.332;2023-04-24T04:25:19;9.88;;;8.95;;
64597;SDS011;51004;54.692;9.332;2023-04-24T04:27:46;9.43;;;8.52;;
64597;SDS011;51004;54.692;9.332;2023-04-24T04:30:16;8.95;;;8.13;;
64597;SDS011;51004;54.692;9.332;2023-04-24T04:32:44;7.25;;;6.47;;
64597;SDS011;51004;54.692;9.332;2023-04-24T04:35:10;7.00;;;5.85;;
64597;SDS011;51004;54.692;9.332;2023-04-24T04:37:36;5.82;;;5.32;;
64597;SDS011;51004;54.692;9.332;2023-04-24T04:40:02;6.38;;;5.78;;
64597;SDS011;51004;54.692;9.332;2023-04-24T04:42:32;6.07;;;5.47;;
64597;SDS011;51004;54.692;9.332;2023-04-24T04:45:05;5.50;;;4.53;;
64597;SDS011;51004;54.692;9.332;2023-04-24T04:47:32;3.92;;;3.53;;
64597;SDS011;51004;54.692;9.332;2023-04-24T04:49:58;4.18;;;2.90;;
64597;SDS011;51004;54.692;9.332;2023-04-24T04:52:24;3.53;;;3.22;;
64597;SDS011;51004;54.692;9.332;2023-04-24T04:54:51;4.38;;;3.30;;
64597;SDS011;51004;54.692;9.332;2023-04-24T04:57:17;3.45;;;2.42;;
64597;SDS011;51004;54.692;9.332;2023-04-24T04:59:43;3.20;;;2.90;;
64597;SDS011;51004;54.692;9.332;2023-04-24T05:02:09;2.97;;;2.67;;
64597;SDS011;51004;54.692;9.332;2023-04-24T05:04:35;3.40;;;2.85;;
64597;SDS011;51004;54.692;9.332;2023-04-24T05:07:01;2.53;;;2.33;;
64597;SDS011;51004;54.692;9.332;2023-04-24T05:09:27;3.83;;;2.38;;
64597;SDS011;51004;54.692;9.332;2023-04-24T05:11:54;4.07;;;2.70;;
64597;SDS011;51004;54.692;9.332;2023-04-24T05:14:21;4.15;;;3.15;;
64597;SDS011;51004;54.692;9.332;2023-04-24T05:16:46;2.90;;;2.70;;
64597;SDS011;51004;54.692;9.332;2023-04-24T05:19:12;3.50;;;3.20;;
64597;SDS011;51004;54.692;9.332;2023-04-24T05:21:39;3.47;;;3.17;;
64597;SDS011;51004;54.692;9.332;2023-04-24T05:24:05;3.95;;;3.10;;
64597;SDS011;51004;54.692;9.332;2023-04-24T05:26:31;3.20;;;2.90;;
64597;SDS011;51004;54.692;9.332;2023-04-24T05:28:57;3.85;;;3.40;;
64597;SDS011;51004;54.692;9.332;2023-04-24T05:31:23;4.43;;;4.03;;
64597;SDS011;51004;54.692;9.332;2023-04-24T05:33:50;3.78;;;3.45;;
64597;SDS011;51004;54.692;9.332;2023-04-24T05:36:16;3.80;;;3.50;;
64597;SDS011;51004;54.692;9.332;2023-04-24T05:38:42;3.80;;;3.50;;
64597;SDS011;51004;54.692;9.332;2023-04-24T05:41:08;3.75;;;3.38;;
64597;SDS011;51004;54.692;9.332;2023-04-24T05:43:34;3.75;;;3.45;;
64597;SDS011;51004;54.692;9.332;2023-04-24T05:46:00;4.32;;;3.50;;
64597;SDS011;51004;54.692;9.332;2023-04-24T05:48:26;4.30;;;3.45;;
64597;SDS011;51004;54.692;9.332;2023-04-24T05:50:52;3.60;;;3.30;;
64597;SDS011;51004;54.692;9.332;2023-04-24T05:53:18;3.83;;;3.50;;
64597;SDS011;51004;54.692;9.332;2023-04-24T05:55:44;3.60;;;3.20;;
64597;SDS011;51004;54.692;9.332;2023-04-24T05:58:11;4.22;;;3.83;;
64597;SDS011;51004;54.692;9.332;2023-04-24T06:00:37;5.28;;;4.40;;
64597;SDS011;51004;54.692;9.332;2023-04-24T06:03:06;4.85;;;4.25;;
64597;SDS011;51004;54.692;9.332;2023-04-24T06:05:32;6.93;;;4.72;;
64597;SDS011;51004;54.692;9.332;2023-04-24T06:07:58;5.13;;;4.63;;
64597;SDS011;51004;54.692;9.332;2023-04-24T06:10:24;5.65;;;4.88;;
64597;SDS011;51004;54.692;9.332;2023-04-24T06:12:50;5.75;;;5.22;;
64597;SDS011;51004;54.692;9.332;2023-04-24T06:15:16;5.72;;;5.22;;
64597;SDS011;51004;54.692;9.332;2023-04-24T06:17:42;5.68;;;5.05;;
64597;SDS011;51004;54.692;9.332;2023-04-24T06:20:08;5.70;;;5.05;;
64597;SDS011;51004;54.692;9.332;2023-04-24T06:22:35;5.45;;;4.88;;
64597;SDS011;51004;54.692;9.332;2023-04-24T06:25:01;5.85;;;5.22;;
64597;SDS011;51004;54.692;9.332;2023-04-24T06:27:27;5.90;;;4.40;;
64597;SDS011;51004;54.692;9.332;2023-04-24T06:29:53;5.28;;;4.78;;
64597;SDS011;51004;54.692;9.332;2023-04-24T06:32:23;5.63;;;5.13;;
64597;SDS011;51004;54.692;9.332;2023-04-24T06:34:50;5.43;;;4.93;;
64597;SDS011;51004;54.692;9.332;2023-04-24T06:37:16;6.03;;;5.43;;
64597;SDS011;51004;54.692;9.332;2023-04-24T06:39:42;4.93;;;4.47;;
64597;SDS011;51004;54.692;9.332;2023-04-24T06:42:08;5.53;;;5.03;;
64597;SDS011;51004;54.692;9.332;2023-04-24T06:44:34;5.72;;;4.78;;
64597;SDS011;51004;54.692;9.332;2023-04-24T06:47:05;5.68;;;4.95;;
64597;SDS011;51004;54.692;9.332;2023-04-24T06:49:31;4.93;;;4.53;;
64597;SDS011;51004;54.692;9.332;2023-04-24T06:51:57;5.30;;;4.80;;
64597;SDS011;51004;54.692;9.332;2023-04-24T06:54:23;6.30;;;5.72;;
64597;SDS011;51004;54.692;9.332;2023-04-24T06:56:49;5.50;;;5.00;;
64597;SDS011;51004;54.692;9.332;2023-04-24T06:59:16;5.75;;;5.13;;
64597;SDS011;51004;54.692;9.332;2023-04-24T07:01:42;5.18;;;4.70;;
64597;SDS011;51004;54.692;9.332;2023-04-24T07:04:08;5.90;;;5.40;;
64597;SDS011;51004;54.692;9.332;2023-04-24T07:06:34;6.03;;;5.45;;
64597;SDS011;51004;54.692;9.332;2023-04-24T07:09:01;6.28;;;5.68;;
64597;SDS011;51004;54.692;9.332;2023-04-24T07:11:28;6.25;;;5.65;;
64597;SDS011;51004;54.692;9.332;2023-04-24T07:13:54;8.02;;;7.25;;
64597;SDS011;51004;54.692;9.332;2023-04-24T07:16:20;8.07;;;7.38;;
64597;SDS011;51004;54.692;9.332;2023-04-24T07:18:46;6.63;;;6.03;;
64597;SDS011;51004;54.692;9.332;2023-04-24T07:21:12;6.75;;;6.15;;
64597;SDS011;51004;54.692;9.332;2023-04-24T07:23:38;6.57;;;5.97;;
64597;SDS011;51004;54.692;9.332;2023-04-24T07:26:06;6.80;;;5.45;;
64597;SDS011;51004;54.692;9.332;2023-04-24T07:28:32;5.45;;;4.80;;
64597;SDS011;51004;54.692;9.332;2023-04-24T07:30:58;5.10;;;4.57;;
64597;SDS011;51004;54.692;9.332;2023-04-24T07:33:24;6.18;;;5.32;;
64597;SDS011;51004;54.692;9.332;2023-04-24T07:35:50;5.43;;;4.88;;
64597;SDS011;51004;54.692;9.332;2023-04-24T07:38:17;6.20;;;5.60;;
64597;SDS011;51004;54.692;9.332;2023-04-24T07:40:46;4.88;;;4.38;;
64597;SDS011;51004;54.692;9.332;2023-04-24T07:43:12;5.30;;;4.60;;
64597;SDS011;51004;54.692;9.332;2023-04-24T07:45:38;5.38;;;4.88;;
64597;SDS011;51004;54.692;9.332;2023-04-24T07:48:04;4.95;;;4.28;;
64597;SDS011;51004;54.692;9.332;2023-04-24T07:50:30;5.20;;;4.55;;
64597;SDS011;51004;54.692;9.332;2023-04-24T07:52:56;5.75;;;4.70;;
64597;SDS011;51004;54.692;9.332;2023-04-24T07:55:22;5.75;;;5.10;;
64597;SDS011;51004;54.692;9.332;2023-04-24T07:57:48;4.82;;;4.32;;
64597;SDS011;51004;54.692;9.332;2023-04-24T08:00:15;5.90;;;4.22;;
64597;SDS011;51004;54.692;9.332;2023-04-24T08:02:41;4.60;;;4.18;;
64597;SDS011;51004;54.692;9.332;2023-04-24T08:05:07;4.95;;;4.53;;
64597;SDS011;51004;54.692;9.332;2023-04-24T08:07:33;5.22;;;4.68;;
64597;SDS011;51004;54.692;9.332;2023-04-24T08:10:00;5.63;;;5.03;;
64597;SDS011;51004;54.692;9.332;2023-04-24T08:12:27;4.90;;;4.45;;
64597;SDS011;51004;54.692;9.332;2023-04-24T08:14:53;4.47;;;4.07;;
64597;SDS011;51004;54.692;9.332;2023-04-24T08:17:19;4.82;;;4.43;;
64597;SDS011;51004;54.692;9.332;2023-04-24T08:19:45;4.93;;;4.50;;
64597;SDS011;51004;54.692;9.332;2023-04-24T08:22:16;4.65;;;4.20;;
64597;SDS011;51004;54.692;9.332;2023-04-24T08:24:42;4.93;;;4.40;;
64597;SDS011;51004;54.692;9.332;2023-04-24T08:27:08;5.15;;;4.68;;
64597;SDS011;51004;54.692;9.332;2023-04-24T08:29:35;7.80;;;5.47;;
64597;SDS011;51004;54.692;9.332;2023-04-24T08:32:01;8.57;;;5.03;;
64597;SDS011;51004;54.692;9.332;2023-04-24T08:34:27;5.15;;;4.63;;
64597;SDS011;51004;54.692;9.332;2023-04-24T08:36:53;6.60;;;5.30;;
64597;SDS011;51004;54.692;9.332;2023-04-24T08:39:19;7.70;;;5.10;;
64597;SDS011;51004;54.692;9.332;2023-04-24T08:41:45;6.65;;;5.22;;
64597;SDS011;51004;54.692;9.332;2023-04-24T08:44:11;5.68;;;4.95;;
64597;SDS011;51004;54.692;9.332;2023-04-24T08:46:40;4.95;;;4.47;;
64597;SDS011;51004;54.692;9.332;2023-04-24T08:49:06;6.05;;;5.18;;
64597;SDS011;51004;54.692;9.332;2023-04-24T08:51:32;4.80;;;4.38;;
64597;SDS011;51004;54.692;9.332;2023-04-24T08:53:58;5.07;;;4.57;;
64597;SDS011;51004;54.692;9.332;2023-04-24T08:56:24;6.22;;;4.43;;
64597;SDS011;51004;54.692;9.332;2023-04-24T08:58:50;7.72;;;5.28;;
64597;SDS011;51004;54.692;9.332;2023-04-24T09:01:18;6.07;;;5.47;;
64597;SDS011;51004;54.692;9.332;2023-04-24T09:03:44;5.63;;;4.70;;
64597;SDS011;51004;54.692;9.332;2023-04-24T09:06:11;7.70;;;5.05;;
64597;SDS011;51004;54.692;9.332;2023-04-24T09:08:37;5.07;;;4.53;;
64597;SDS011;51004;54.692;9.332;2023-04-24T09:11:04;6.63;;;5.25;;
64597;SDS011;51004;54.692;9.332;2023-04-24T09:13:30;5.82;;;4.97;;
64597;SDS011;51004;54.692;9.332;2023-04-24T09:15:56;5.75;;;5.13;;
64597;SDS011;51004;54.692;9.332;2023-04-24T09:18:22;6.30;;;4.70;;
64597;SDS011;51004;54.692;9.332;2023-04-24T09:20:58;5.88;;;5.05;;
64597;SDS011;51004;54.692;9.332;2023-04-24T09:23:29;6.30;;;5.28;;
64597;SDS011;51004;54.692;9.332;2023-04-24T09:25:55;6.60;;;5.82;;
64597;SDS011;51004;54.692;9.332;2023-04-24T09:28:25;6.75;;;4.80;;
64597;SDS011;51004;54.692;9.332;2023-04-24T09:33:35;6.22;;;5.22;;
64597;SDS011;51004;54.692;9.332;2023-04-24T09:36:01;5.40;;;4.38;;
64597;SDS011;51004;54.692;9.332;2023-04-24T09:38:34;6.00;;;5.40;;
64597;SDS011;51004;54.692;9.332;2023-04-24T09:41:07;5.47;;;4.82;;
64597;SDS011;51004;54.692;9.332;2023-04-24T09:43:33;5.38;;;4.55;;
64597;SDS011;51004;54.692;9.332;2023-04-24T09:46:04;6.35;;;4.28;;
64597;SDS011;51004;54.692;9.332;2023-04-24T09:48:35;4.95;;;4.05;;
64597;SDS011;51004;54.692;9.332;2023-04-24T09:51:01;4.85;;;4.35;;
64597;SDS011;51004;54.692;9.332;2023-04-24T09:53:28;4.40;;;3.92;;
64597;SDS011;51004;54.692;9.332;2023-04-24T09:55:55;5.63;;;3.65;;
64597;SDS011;51004;54.692;9.332;2023-04-24T09:58:24;4.07;;;3.67;;
64597;SDS011;51004;54.692;9.332;2023-04-24T10:00:53;5.13;;;4.13;;
64597;SDS011;51004;54.692;9.332;2023-04-24T10:03:19;3.95;;;3.55;;
64597;SDS011;51004;54.692;9.332;2023-04-24T10:05:45;3.75;;;3.20;;
64597;SDS011;51004;54.692;9.332;2023-04-24T10:08:12;5.32;;;3.80;;
64597;SDS011;51004;54.692;9.332;2023-04-24T10:10:39;4.68;;;4.18;;
64597;SDS011;51004;54.692;9.332;2023-04-24T10:13:05;5.65;;;4.55;;
64597;SDS011;51004;54.692;9.332;2023-04-24T10:15:32;6.18;;;5.22;;
64597;SDS011;51004;54.692;9.332;2023-04-24T10:17:59;5.05;;;4.55;;
64597;SDS011;51004;54.692;9.332;2023-04-24T10:20:25;5.20;;;4.70;;
64597;SDS011;51004;54.692;9.332;2023-04-24T10:22:52;6.05;;;4.45;;
64597;SDS011;51004;54.692;9.332;2023-04-24T10:25:22;4.20;;;3.80;;
64597;SDS011;51004;54.692;9.332;2023-04-24T10:27:50;5.13;;;4.63;;
64597;SDS011;51004;54.692;9.332;2023-04-24T10:30:17;6.47;;;4.25;;
64597;SDS011;51004;54.692;9.332;2023-04-24T10:32:43;6.32;;;5.00;;
64597;SDS011;51004;54.692;9.332;2023-04-24T10:35:10;5.47;;;4.40;;
64597;SDS011;51004;54.692;9.332;2023-04-24T10:37:38;4.82;;;3.25;;
64597;SDS011;51004;54.692;9.332;2023-04-24T10:40:06;5.28;;;4.00;;
64597;SDS011;51004;54.692;9.332;2023-04-24T10:42:32;5.72;;;4.63;;
64597;SDS011;51004;54.692;9.332;2023-04-24T10:44:58;4.35;;;3.88;;
64597;SDS011;51004;54.692;9.332;2023-04-24T10:47:27;4.25;;;3.85;;
64597;SDS011;51004;54.692;9.332;2023-04-24T10:49:52;4.45;;;4.05;;
64597;SDS011;51004;54.692;9.332;2023-04-24T10:52:18;3.65;;;3.25;;
64597;SDS011;51004;54.692;9.332;2023-04-24T10:54:45;5.25;;;3.88;;
64597;SDS011;51004;54.692;9.332;2023-04-24T10:57:30;4.40;;;3.70;;
64597;SDS011;51004;54.692;9.332;2023-04-24T11:00:15;3.63;;;3.00;;
64597;SDS011;51004;54.692;9.332;2023-04-24T11:02:41;3.63;;;2.88;;
64597;SDS011;51004;54.692;9.332;2023-04-24T11:05:17;5.72;;;2.90;;
64597;SDS011;51004;54.692;9.332;2023-04-24T11:10:28;3.88;;;2.90;;
64597;SDS011;51004;54.692;9.332;2023-04-24T11:12:54;3.45;;;2.90;;
64597;SDS011;51004;54.692;9.332;2023-04-24T11:15:20;6.05;;;2.88;;
64597;SDS011;51004;54.692;9.332;2023-04-24T11:17:46;3.05;;;2.50;;
64597;SDS011;51004;54.692;9.332;2023-04-24T11:20:16;4.28;;;2.83;;
64597;SDS011;51004;54.692;9.332;2023-04-24T11:22:42;3.25;;;2.75;;
64597;SDS011;51004;54.692;9.332;2023-04-24T11:25:09;3.30;;;2.65;;
64597;SDS011;51004;54.692;9.332;2023-04-24T11:27:40;3.25;;;2.65;;
64597;SDS011;51004;54.692;9.332;2023-04-24T11:30:07;5.00;;;3.03;;
64597;SDS011;51004;54.692;9.332;2023-04-24T11:35:00;3.35;;;2.53;;
64597;SDS011;51004;54.692;9.332;2023-04-24T11:37:29;4.85;;;3.17;;
64597;SDS011;51004;54.692;9.332;2023-04-24T11:39:59;4.60;;;3.35;;
64597;SDS011;51004;54.692;9.332;2023-04-24T11:42:25;4.68;;;3.28;;
64597;SDS011;51004;54.692;9.332;2023-04-24T11:44:54;3.40;;;3.05;;
64597;SDS011;51004;54.692;9.332;2023-04-24T11:47:27;4.07;;;3.60;;
64597;SDS011;51004;54.692;9.332;2023-04-24T11:49:53;4.68;;;4.05;;
64597;SDS011;51004;54.692;9.332;2023-04-24T11:52:19;3.50;;;3.20;;
64597;SDS011;51004;54.692;9.332;2023-04-24T11:54:49;3.78;;;2.67;;
64597;SDS011;51004;54.692;9.332;2023-04-24T11:57:15;3.40;;;2.88;;
64597;SDS011;51004;54.692;9.332;2023-04-24T11:59:41;5.53;;;3.10;;
64597;SDS011;51004;54.692;9.332;2023-04-24T12:02:08;3.30;;;3.00;;
64597;SDS011;51004;54.692;9.332;2023-04-24T12:04:38;3.13;;;2.58;;
64597;SDS011;51004;54.692;9.332;2023-04-24T12:07:05;2.55;;;2.33;;
64597;SDS011;51004;54.692;9.332;2023-04-24T12:09:46;3.17;;;2.47;;
64597;SDS011;51004;54.692;9.332;2023-04-24T12:12:12;2.90;;;2.60;;
64597;SDS011;51004;54.692;9.332;2023-04-24T12:14:57;2.60;;;2.35;;
64597;SDS011;51004;54.692;9.332;2023-04-24T12:17:33;3.45;;;2.63;;
64597;SDS011;51004;54.692;9.332;2023-04-24T12:22:25;4.97;;;4.47;;
64597;SDS011;51004;54.692;9.332;2023-04-24T12:24:55;4.70;;;4.30;;
64597;SDS011;51004;54.692;9.332;2023-04-24T12:27:21;4.38;;;3.97;;
64597;SDS011;51004;54.692;9.332;2023-04-24T12:30:09;4.15;;;3.55;;
64597;SDS011;51004;54.692;9.332;2023-04-24T12:32:40;6.10;;;3.92;;
64597;SDS011;51004;54.692;9.332;2023-04-24T12:35:06;4.20;;;3.58;;
64597;SDS011;51004;54.692;9.332;2023-04-24T12:37:33;5.18;;;3.75;;
64597;SDS011;51004;54.692;9.332;2023-04-24T12:40:02;7.80;;;4.60;;
64597;SDS011;51004;54.692;9.332;2023-04-24T12:42:28;6.95;;;5.15;;
64597;SDS011;51004;54.692;9.332;2023-04-24T12:45:05;7.68;;;5.43;;
64597;SDS011;51004;54.692;9.332;2023-04-24T12:47:32;8.63;;;5.80;;
64597;SDS011;51004;54.692;9.332;2023-04-24T12:49:58;7.93;;;5.72;;
64597;SDS011;51004;54.692;9.332;2023-04-24T12:52:24;7.47;;;5.78;;
64597;SDS011;51004;54.692;9.332;2023-04-24T12:54:54;8.70;;;5.95;;
64597;SDS011;51004;54.692;9.332;2023-04-24T12:57:21;8.43;;;5.65;;
64597;SDS011;51004;54.692;9.332;2023-04-24T12:59:47;7.30;;;5.15;;
64597;SDS011;51004;54.692;9.332;2023-04-24T13:02:13;6.22;;;5.00;;
64597;SDS011;51004;54.692;9.332;2023-04-24T13:04:42;6.55;;;5.18;;
64597;SDS011;51004;54.692;9.332;2023-04-24T13:07:08;8.23;;;5.40;;
64597;SDS011;51004;54.692;9.332;2023-04-24T13:09:34;5.60;;;4.70;;
64597;SDS011;51004;54.692;9.332;2023-04-24T13:12:00;7.05;;;4.93;;
64597;SDS011;51004;54.692;9.332;2023-04-24T13:14:26;6.72;;;5.03;;
64597;SDS011;51004;54.692;9.332;2023-04-24T13:16:52;5.78;;;4.13;;
64597;SDS011;51004;54.692;9.332;2023-04-24T13:19:18;7.22;;;5.07;;
64597;SDS011;51004;54.692;9.332;2023-04-24T13:21:44;6.00;;;5.38;;
64597;SDS011;51004;54.692;9.332;2023-04-24T13:24:10;7.95;;;5.68;;
64597;SDS011;51004;54.692;9.332;2023-04-24T13:26:37;7.20;;;5.72;;
64597;SDS011;51004;54.692;9.332;2023-04-24T13:29:04;6.28;;;5.47;;
64597;SDS011;51004;54.692;9.332;2023-04-24T13:31:29;9.50;;;6.65;;
64597;SDS011;51004;54.692;9.332;2023-04-24T13:33:55;9.48;;;7.05;;
64597;SDS011;51004;54.692;9.332;2023-04-24T13:36:21;8.75;;;7.20;;
64597;SDS011;51004;54.692;9.332;2023-04-24T13:38:47;8.30;;;6.38;;
64597;SDS011;51004;54.692;9.332;2023-04-24T13:41:13;8.13;;;6.20;;
64597;SDS011;51004;54.692;9.332;2023-04-24T13:43:39;6.85;;;6.07;;
64597;SDS011;51004;54.692;9.332;2023-04-24T13:46:07;10.25;;;7.03;;
64597;SDS011;51004;54.692;9.332;2023-04-24T13:48:33;6.40;;;4.53;;
64597;SDS011;51004;54.692;9.332;2023-04-24T13:50:59;6.80;;;3.60;;
64597;SDS011;51004;54.692;9.332;2023-04-24T13:53:25;5.75;;;4.10;;
64597;SDS011;51004;54.692;9.332;2023-04-24T13:55:51;5.30;;;3.80;;
64597;SDS011;51004;54.692;9.332;2023-04-24T13:58:17;6.80;;;3.97;;
64597;SDS011;51004;54.692;9.332;2023-04-24T14:00:43;7.88;;;3.58;;
64597;SDS011;51004;54.692;9.332;2023-04-24T14:03:10;4.13;;;2.75;;
64597;SDS011;51004;54.692;9.332;2023-04-24T14:05:36;6.07;;;3.80;;
64597;SDS011;51004;54.692;9.332;2023-04-24T14:08:02;6.88;;;3.50;;
64597;SDS011;51004;54.692;9.332;2023-04-24T14:10:27;7.45;;;4.07;;
64597;SDS011;51004;54.692;9.332;2023-04-24T14:12:53;4.47;;;3.42;;
64597;SDS011;51004;54.692;9.332;2023-04-24T14:15:20;10.80;;;4.30;;
64597;SDS011;51004;54.692;9.332;2023-04-24T14:17:46;4.75;;;4.25;;
64597;SDS011;51004;54.692;9.332;2023-04-24T14:20:12;5.25;;;4.53;;
64597;SDS011;51004;54.692;9.332;2023-04-24T14:22:38;6.20;;;4.53;;
64597;SDS011;51004;54.692;9.332;2023-04-24T14:25:04;6.93;;;5.32;;
64597;SDS011;51004;54.692;9.332;2023-04-24T14:27:31;6.53;;;5.15;;
64597;SDS011;51004;54.692;9.332;2023-04-24T14:29:59;5.63;;;5.10;;
64597;SDS011;51004;54.692;9.332;2023-04-24T14:32:25;6.07;;;4.68;;
64597;SDS011;51004;54.692;9.332;2023-04-24T14:34:51;7.00;;;4.57;;
64597;SDS011;51004;54.692;9.332;2023-04-24T14:37:19;6.22;;;4.53;;
64597;SDS011;51004;54.692;9.332;2023-04-24T14:39:45;9.90;;;4.72;;
64597;SDS011;51004;54.692;9.332;2023-04-24T14:42:11;7.65;;;4.97;;
64597;SDS011;51004;54.692;9.332;2023-04-24T14:44:37;10.75;;;6.07;;
64597;SDS011;51004;54.692;9.332;2023-04-24T14:47:03;9.80;;;6.30;;
64597;SDS011;51004;54.692;9.332;2023-04-24T14:49:29;10.65;;;6.18;;
64597;SDS011;51004;54.692;9.332;2023-04-24T14:51:55;10.07;;;7.03;;
64597;SDS011;51004;54.692;9.332;2023-04-24T14:54:21;13.60;;;6.03;;